Hamburg, Louisiana
Current Conditions -  °F | °C
As of 9:15 AM on Thursday 30 Oct 2014 (Local Time) from KOPL Reporting Station
Clear Clear  
Wind Chill: 15°   Ceiling: Unl
Heat Index: 15°   Visibility: 10mi
Dew Point:   Wind: 7mph
Humidity: 67%   Direction: 50°NE
Pressure: 30.15"   Gusts: NA
Location:  31.03°N, 91.93°W
Report Text: KOPL 301415Z AUTO 05006KT 10SM CLR 15/09 A3015 RMK AO2 T01470086
Loading
Personal Weather Stations






























Interactive Weather Map
Tropical Storm Tracking
New forecast layout! Learn more

10-Day Weather Forecast

Advertisements
Track Severe Weather on mobile